CSCL Fuzhou — ELYA7 — position and weather

sailwx.info

Track history (hours):
 
Tides and Currents Weather Stations Pressure Air Temp Water Temp Dewpoint Dewpoint Depression Visibility Wind Speed Wind Dir Waves Ship Positions

CSCL Fuzhou

Last reported at 2016-May-08 07:31 UTC. Time now 2016-May-27 04:38 UTC.
Position N 01°11' E 103°35'.
Warning: this ship's position is 18 days out of date.

Length 207.4 m; beam 29.8 m; draft 11.4 m.

Type: Ship (hazmat cat A). MMSI: 636016483.

Date/timePositionNaut miles runAvg speedWind from/ knotsBaromVisibWave heightAir tempDewpointWater temp
2016-May-08 07:31N 01°11' E 103°35'1111.5
2016-May-08 06:34N 01°17' E 103°45'1 1.1
2016-May-08 05:31N 01°17' E 103°46'0 0.0
2016-May-08 04:31N 01°17' E 103°46'0 0.0
2016-May-08 03:28N 01°17' E 103°46'0 0.0
2016-May-08 02:31N 01°17' E 103°46'0 0.0
2016-May-08 01:31N 01°17' E 103°46'0 0.0
2016-May-08 00:31N 01°17' E 103°46'0 0.0
2016-May-07 23:31N 01°17' E 103°46'0 0.0
2016-May-07 22:33N 01°17' E 103°46'1 1.3
2016-May-07 21:33N 01°17' E 103°45'7 7.3
2016-May-07 20:33N 01°12' E 103°39'6 5.6
2016-May-07 19:33N 01°13' E 103°33'4 3.7
2016-May-07 18:32N 01°17' E 103°33'5 0.3
2016-May-06 23:13N 01°22' E 103°33'5 7.0
2016-May-06 22:30N 01°17' E 103°33'4 2.6
2016-May-06 21:07N 01°14' E 103°31'0 0.0
2016-May-06 20:31N 01°14' E 103°31'0 0.1
2016-May-06 18:25N 01°14' E 103°31'1 0.2
2016-May-06 13:32N 01°13' E 103°31'7512.5
2016-May-06 07:33N 01°48' E 102°25'1312.8
2016-May-06 06:33N 01°54' E 102°14'  
Track history (hours):
 
Tides and Currents Weather Stations Pressure Air Temp Water Temp Dewpoint Dewpoint Depression Visibility Wind Speed Wind Dir Waves Ship Positions

CSCL Fuzhou

Last reported at 2016-May-08 07:31 UTC. Time now 2016-May-27 04:38 UTC.
Position N 01°11' E 103°35'.
Warning: this ship's position is 18 days out of date.

Length 207.4 m; beam 29.8 m; draft 11.4 m.

Type: Ship (hazmat cat A). MMSI: 636016483.

Date/timePositionNaut miles runAvg speedWind from/ knotsBaromVisibWave heightAir tempDewpointWater temp
2016-May-08 07:31N 01°11' E 103°35'1111.5
2016-May-08 06:34N 01°17' E 103°45'1 1.1
2016-May-08 05:31N 01°17' E 103°46'0 0.0
2016-May-08 04:31N 01°17' E 103°46'0 0.0
2016-May-08 03:28N 01°17' E 103°46'0 0.0
2016-May-08 02:31N 01°17' E 103°46'0 0.0
2016-May-08 01:31N 01°17' E 103°46'0 0.0
2016-May-08 00:31N 01°17' E 103°46'0 0.0
2016-May-07 23:31N 01°17' E 103°46'0 0.0
2016-May-07 22:33N 01°17' E 103°46'1 1.3
2016-May-07 21:33N 01°17' E 103°45'7 7.3
2016-May-07 20:33N 01°12' E 103°39'6 5.6
2016-May-07 19:33N 01°13' E 103°33'4 3.7
2016-May-07 18:32N 01°17' E 103°33'5 0.3
2016-May-06 23:13N 01°22' E 103°33'5 7.0
2016-May-06 22:30N 01°17' E 103°33'4 2.6
2016-May-06 21:07N 01°14' E 103°31'0 0.0
2016-May-06 20:31N 01°14' E 103°31'0 0.1
2016-May-06 18:25N 01°14' E 103°31'1 0.2
2016-May-06 13:32N 01°13' E 103°31'7512.5
2016-May-06 07:33N 01°48' E 102°25'1312.8
2016-May-06 06:33N 01°54' E 102°14'  

Dump ship's entire track history